sensor_id;sensor_type;location;lat;lon;timestamp;pressure;altitude;pressure_sealevel;temperature;humidity
48390;BME280;34643;47.964;7.982;2023-03-01T00:03:33;97176.72;;;15.81;51.59
48390;BME280;34643;47.964;7.982;2023-03-01T00:08:33;97173.25;;;15.81;51.70
48390;BME280;34643;47.964;7.982;2023-03-01T00:13:34;97183.75;;;15.79;51.65
48390;BME280;34643;47.964;7.982;2023-03-01T00:18:35;97182.00;;;15.80;51.68
48390;BME280;34643;47.964;7.982;2023-03-01T00:23:36;97181.06;;;15.81;51.60
48390;BME280;34643;47.964;7.982;2023-03-01T00:28:36;97178.28;;;15.84;51.40
48390;BME280;34643;47.964;7.982;2023-03-01T00:33:36;97173.81;;;15.86;51.44
48390;BME280;34643;47.964;7.982;2023-03-01T00:38:37;97172.16;;;15.85;51.48
48390;BME280;34643;47.964;7.982;2023-03-01T00:43:38;97160.69;;;15.87;51.50
48390;BME280;34643;47.964;7.982;2023-03-01T00:48:39;97164.22;;;15.86;51.53
48390;BME280;34643;47.964;7.982;2023-03-01T00:53:39;97152.81;;;15.89;51.53
48390;BME280;34643;47.964;7.982;2023-03-01T00:58:40;97154.66;;;15.87;51.41
48390;BME280;34643;47.964;7.982;2023-03-01T01:03:40;97152.06;;;15.87;51.57
48390;BME280;34643;47.964;7.982;2023-03-01T01:08:41;97144.34;;;15.85;51.42
48390;BME280;34643;47.964;7.982;2023-03-01T01:13:41;97134.94;;;15.83;51.40
48390;BME280;34643;47.964;7.982;2023-03-01T01:18:42;97137.53;;;15.83;51.47
48390;BME280;34643;47.964;7.982;2023-03-01T01:23:43;97142.00;;;15.81;51.44
48390;BME280;34643;47.964;7.982;2023-03-01T01:28:44;97134.22;;;15.81;51.37
48390;BME280;34643;47.964;7.982;2023-03-01T01:33:44;97127.34;;;15.80;51.47
48390;BME280;34643;47.964;7.982;2023-03-01T01:38:46;97124.75;;;15.80;51.38
48390;BME280;34643;47.964;7.982;2023-03-01T01:43:47;97114.34;;;15.80;51.27
48390;BME280;34643;47.964;7.982;2023-03-01T01:48:50;97120.63;;;15.75;51.48
48390;BME280;34643;47.964;7.982;2023-03-01T01:53:54;97115.44;;;15.75;51.35
48390;BME280;34643;47.964;7.982;2023-03-01T01:58:56;97105.22;;;15.72;51.29
48390;BME280;34643;47.964;7.982;2023-03-01T02:03:57;97094.69;;;15.74;51.31
48390;BME280;34643;47.964;7.982;2023-03-01T02:08:59;97088.50;;;15.76;51.38
48390;BME280;34643;47.964;7.982;2023-03-01T02:14:00;97091.81;;;15.78;51.24
48390;BME280;34643;47.964;7.982;2023-03-01T02:19:00;97089.31;;;15.77;51.29
48390;BME280;34643;47.964;7.982;2023-03-01T02:24:03;97096.31;;;15.76;51.26
48390;BME280;34643;47.964;7.982;2023-03-01T02:29:10;97085.88;;;15.76;51.42
48390;BME280;34643;47.964;7.982;2023-03-01T02:34:18;97084.97;;;15.77;51.17
48390;BME280;34643;47.964;7.982;2023-03-01T02:39:19;97082.47;;;15.76;51.40
48390;BME280;34643;47.964;7.982;2023-03-01T02:44:22;97079.84;;;15.76;51.29
48390;BME280;34643;47.964;7.982;2023-03-01T02:49:28;97078.19;;;15.75;51.07
48390;BME280;34643;47.964;7.982;2023-03-01T02:54:43;97068.59;;;15.75;51.27
48390;BME280;34643;47.964;7.982;2023-03-01T02:59:46;97065.22;;;15.73;51.25
48390;BME280;34643;47.964;7.982;2023-03-01T03:04:47;97058.19;;;15.75;50.89
48390;BME280;34643;47.964;7.982;2023-03-01T03:09:48;97056.53;;;15.74;51.15
48390;BME280;34643;47.964;7.982;2023-03-01T03:14:48;97058.09;;;15.77;51.17
48390;BME280;34643;47.964;7.982;2023-03-01T03:19:49;97057.34;;;15.75;51.08
48390;BME280;34643;47.964;7.982;2023-03-01T03:24:49;97048.72;;;15.74;51.19
48390;BME280;34643;47.964;7.982;2023-03-01T03:29:49;97033.94;;;15.75;51.04
48390;BME280;34643;47.964;7.982;2023-03-01T03:34:49;97042.38;;;15.78;51.15
48390;BME280;34643;47.964;7.982;2023-03-01T03:39:50;97035.53;;;15.77;51.11
48390;BME280;34643;47.964;7.982;2023-03-01T03:44:54;97033.75;;;15.78;51.05
48390;BME280;34643;47.964;7.982;2023-03-01T03:49:55;97038.13;;;15.77;51.01
48390;BME280;34643;47.964;7.982;2023-03-01T03:54:55;97030.31;;;15.77;51.10
48390;BME280;34643;47.964;7.982;2023-03-01T03:59:55;97031.97;;;15.78;51.03
48390;BME280;34643;47.964;7.982;2023-03-01T04:04:55;97023.25;;;15.80;50.97
48390;BME280;34643;47.964;7.982;2023-03-01T04:09:56;97017.09;;;15.81;51.02
48390;BME280;34643;47.964;7.982;2023-03-01T04:14:56;97011.88;;;15.81;50.95
48390;BME280;34643;47.964;7.982;2023-03-01T04:19:57;97022.38;;;15.79;50.95
48390;BME280;34643;47.964;7.982;2023-03-01T04:24:57;97013.00;;;15.76;51.14
48390;BME280;34643;47.964;7.982;2023-03-01T04:29:58;97014.69;;;15.77;50.93
48390;BME280;34643;47.964;7.982;2023-03-01T04:34:59;96996.66;;;15.74;50.92
48390;BME280;34643;47.964;7.982;2023-03-01T04:40:00;96998.50;;;15.72;50.97
48390;BME280;34643;47.964;7.982;2023-03-01T04:45:00;97000.25;;;15.72;50.88
48390;BME280;34643;47.964;7.982;2023-03-01T04:50:00;97005.38;;;15.73;51.07
48390;BME280;34643;47.964;7.982;2023-03-01T04:55:01;97007.25;;;15.71;51.03
48390;BME280;34643;47.964;7.982;2023-03-01T05:00:02;96995.91;;;15.72;50.92
48390;BME280;34643;47.964;7.982;2023-03-01T05:05:24;97000.00;;;15.76;50.90
48390;BME280;34643;47.964;7.982;2023-03-01T05:10:26;96990.41;;;15.77;50.80
48390;BME280;34643;47.964;7.982;2023-03-01T05:15:30;96980.75;;;15.79;50.94
48390;BME280;34643;47.964;7.982;2023-03-01T05:20:31;96976.38;;;15.80;50.92
48390;BME280;34643;47.964;7.982;2023-03-01T05:25:32;96975.53;;;15.79;50.94
48390;BME280;34643;47.964;7.982;2023-03-01T05:30:33;96970.78;;;15.86;50.75
48390;BME280;34643;47.964;7.982;2023-03-01T05:35:34;96964.56;;;15.88;50.90
48390;BME280;34643;47.964;7.982;2023-03-01T05:40:34;96963.59;;;15.89;50.90
48390;BME280;34643;47.964;7.982;2023-03-01T05:45:35;96971.31;;;15.91;50.93
48390;BME280;34643;47.964;7.982;2023-03-01T05:50:37;96960.16;;;15.89;50.87
48390;BME280;34643;47.964;7.982;2023-03-01T05:55:39;96965.47;;;15.87;50.93
48390;BME280;34643;47.964;7.982;2023-03-01T06:00:40;96960.38;;;15.86;50.95
48390;BME280;34643;47.964;7.982;2023-03-01T06:05:40;96963.91;;;15.85;51.03
48390;BME280;34643;47.964;7.982;2023-03-01T06:10:41;96965.97;;;15.80;50.86
48390;BME280;34643;47.964;7.982;2023-03-01T06:15:41;96958.28;;;15.78;50.85
48390;BME280;34643;47.964;7.982;2023-03-01T06:20:41;96960.13;;;15.76;50.54
48390;BME280;34643;47.964;7.982;2023-03-01T06:25:42;96965.50;;;15.73;50.68
48390;BME280;34643;47.964;7.982;2023-03-01T06:30:42;96969.97;;;15.71;50.67
48390;BME280;34643;47.964;7.982;2023-03-01T06:35:42;96967.47;;;15.69;50.63
48390;BME280;34643;47.964;7.982;2023-03-01T06:40:43;96972.03;;;15.66;50.59
48390;BME280;34643;47.964;7.982;2023-03-01T06:45:43;96972.31;;;15.61;50.80
48390;BME280;34643;47.964;7.982;2023-03-01T06:50:43;96967.34;;;15.58;50.65
48390;BME280;34643;47.964;7.982;2023-03-01T06:55:44;96975.34;;;15.55;50.75
48390;BME280;34643;47.964;7.982;2023-03-01T07:00:44;96967.72;;;15.52;51.01
48390;BME280;34643;47.964;7.982;2023-03-01T07:05:44;96968.75;;;15.49;50.64
48390;BME280;34643;47.964;7.982;2023-03-01T07:10:45;96967.16;;;15.47;50.83
48390;BME280;34643;47.964;7.982;2023-03-01T07:15:45;96963.19;;;15.41;50.95
48390;BME280;34643;47.964;7.982;2023-03-01T07:20:45;96967.66;;;15.39;50.59
48390;BME280;34643;47.964;7.982;2023-03-01T07:25:52;96966.94;;;15.37;50.68
48390;BME280;34643;47.964;7.982;2023-03-01T07:30:53;96954.13;;;15.34;50.84
48390;BME280;34643;47.964;7.982;2023-03-01T07:36:00;96949.09;;;15.31;50.87
48390;BME280;34643;47.964;7.982;2023-03-01T07:41:01;96947.44;;;15.30;50.62
48390;BME280;34643;47.964;7.982;2023-03-01T07:46:03;96940.84;;;15.24;50.70
48390;BME280;34643;47.964;7.982;2023-03-01T07:51:04;96946.25;;;15.21;50.87
48390;BME280;34643;47.964;7.982;2023-03-01T08:01:06;96951.63;;;15.18;50.81
48390;BME280;34643;47.964;7.982;2023-03-01T08:06:07;96944.97;;;15.14;50.91
48390;BME280;34643;47.964;7.982;2023-03-01T08:11:09;96937.34;;;15.11;50.81
48390;BME280;34643;47.964;7.982;2023-03-01T08:16:11;96943.47;;;15.10;50.88
48390;BME280;34643;47.964;7.982;2023-03-01T08:21:13;96937.53;;;15.08;50.97
48390;BME280;34643;47.964;7.982;2023-03-01T08:26:15;96939.41;;;15.06;50.92
48390;BME280;34643;47.964;7.982;2023-03-01T08:31:25;96943.03;;;15.03;51.09
48390;BME280;34643;47.964;7.982;2023-03-01T08:36:27;96932.81;;;15.00;50.88
48390;BME280;34643;47.964;7.982;2023-03-01T08:41:28;96936.44;;;14.97;51.08
48390;BME280;34643;47.964;7.982;2023-03-01T08:46:30;96938.94;;;14.99;51.02
48390;BME280;34643;47.964;7.982;2023-03-01T08:51:30;96938.13;;;14.98;50.72
48390;BME280;34643;47.964;7.982;2023-03-01T08:56:36;96937.00;;;15.02;50.60
48390;BME280;34643;47.964;7.982;2023-03-01T09:01:37;96930.88;;;15.04;50.68
48390;BME280;34643;47.964;7.982;2023-03-01T09:06:37;96931.06;;;15.00;50.47
48390;BME280;34643;47.964;7.982;2023-03-01T09:11:37;96920.66;;;15.00;50.58
48390;BME280;34643;47.964;7.982;2023-03-01T09:16:38;96908.59;;;14.99;50.51
48390;BME280;34643;47.964;7.982;2023-03-01T09:21:38;96901.72;;;14.98;50.57
48390;BME280;34643;47.964;7.982;2023-03-01T09:26:38;96898.41;;;14.96;50.75
48390;BME280;34643;47.964;7.982;2023-03-01T09:31:39;96896.72;;;14.95;50.51
48390;BME280;34643;47.964;7.982;2023-03-01T09:36:39;96902.00;;;14.94;50.69
48390;BME280;34643;47.964;7.982;2023-03-01T09:41:47;96906.38;;;14.93;50.62
48390;BME280;34643;47.964;7.982;2023-03-01T09:46:49;96909.38;;;14.87;50.63
48390;BME280;34643;47.964;7.982;2023-03-01T09:51:54;96911.03;;;14.88;50.72
48390;BME280;34643;47.964;7.982;2023-03-01T09:57:05;96920.59;;;14.88;50.74
48390;BME280;34643;47.964;7.982;2023-03-01T10:02:24;96923.19;;;14.88;50.68
48390;BME280;34643;47.964;7.982;2023-03-01T10:12:34;96903.88;;;14.92;50.61
48390;BME280;34643;47.964;7.982;2023-03-01T10:17:39;96894.22;;;14.94;50.46
48390;BME280;34643;47.964;7.982;2023-03-01T10:22:42;96884.84;;;14.91;50.63
48390;BME280;34643;47.964;7.982;2023-03-01T10:27:52;96884.84;;;14.91;50.62
48390;BME280;34643;47.964;7.982;2023-03-01T10:32:53;96890.13;;;14.90;50.43
48390;BME280;34643;47.964;7.982;2023-03-01T10:38:07;96888.38;;;14.90;50.56
48390;BME280;34643;47.964;7.982;2023-03-01T10:43:10;96883.38;;;14.87;50.51
48390;BME280;34643;47.964;7.982;2023-03-01T10:48:13;96884.31;;;14.86;50.45
48390;BME280;34643;47.964;7.982;2023-03-01T10:53:20;96873.16;;;14.84;50.51
48390;BME280;34643;47.964;7.982;2023-03-01T10:58:21;96866.28;;;14.83;50.43
48390;BME280;34643;47.964;7.982;2023-03-01T11:03:23;96862.88;;;14.82;50.78
48390;BME280;34643;47.964;7.982;2023-03-01T11:13:36;96852.56;;;14.81;50.55
48390;BME280;34643;47.964;7.982;2023-03-01T11:18:39;96852.38;;;14.84;50.31
48390;BME280;34643;47.964;7.982;2023-03-01T11:23:39;96844.94;;;14.92;50.36
48390;BME280;34643;47.964;7.982;2023-03-01T11:28:40;96834.34;;;14.95;50.20
48390;BME280;34643;47.964;7.982;2023-03-01T11:39:31;96830.00;;;14.96;50.37
48390;BME280;34643;47.964;7.982;2023-03-01T11:44:34;96824.78;;;14.96;50.36
48390;BME280;34643;47.964;7.982;2023-03-01T11:55:04;96811.38;;;15.02;50.45
48390;BME280;34643;47.964;7.982;2023-03-01T12:10:28;96797.31;;;15.19;50.26
48390;BME280;34643;47.964;7.982;2023-03-01T12:15:37;96790.97;;;15.23;50.51
48390;BME280;34643;47.964;7.982;2023-03-01T12:31:44;96774.38;;;15.38;50.47
48390;BME280;34643;47.964;7.982;2023-03-01T12:36:54;96783.09;;;15.37;50.78
48390;BME280;34643;47.964;7.982;2023-03-01T13:02:39;96750.84;;;15.40;50.77
48390;BME280;34643;47.964;7.982;2023-03-01T13:08:27;96736.81;;;15.43;50.90
48390;BME280;34643;47.964;7.982;2023-03-01T13:43:55;96739.94;;;15.48;50.76
48390;BME280;34643;47.964;7.982;2023-03-01T13:48:56;96742.31;;;15.51;50.72
48390;BME280;34643;47.964;7.982;2023-03-01T13:53:57;96732.75;;;15.51;50.68
48390;BME280;34643;47.964;7.982;2023-03-01T13:58:59;96728.56;;;15.49;50.80
48390;BME280;34643;47.964;7.982;2023-03-01T14:04:00;96728.56;;;15.49;50.70
48390;BME280;34643;47.964;7.982;2023-03-01T14:09:16;96725.06;;;15.50;50.66
48390;BME280;34643;47.964;7.982;2023-03-01T14:14:21;96718.16;;;15.49;50.64
48390;BME280;34643;47.964;7.982;2023-03-01T14:19:25;96710.16;;;15.52;50.56
48390;BME280;34643;47.964;7.982;2023-03-01T14:24:26;96702.38;;;15.52;50.64
48390;BME280;34643;47.964;7.982;2023-03-01T14:29:29;96706.84;;;15.50;50.64
48390;BME280;34643;47.964;7.982;2023-03-01T14:34:33;96710.38;;;15.49;50.57
48390;BME280;34643;47.964;7.982;2023-03-01T14:39:33;96698.84;;;15.53;50.51
48390;BME280;34643;47.964;7.982;2023-03-01T14:44:35;96689.25;;;15.53;50.48
48390;BME280;34643;47.964;7.982;2023-03-01T14:49:37;96686.56;;;15.55;50.43
48390;BME280;34643;47.964;7.982;2023-03-01T14:54:52;96689.25;;;15.53;50.61
48390;BME280;34643;47.964;7.982;2023-03-01T14:59:57;96682.47;;;15.51;50.76
48390;BME280;34643;47.964;7.982;2023-03-01T15:04:59;96678.84;;;15.53;50.69
48390;BME280;34643;47.964;7.982;2023-03-01T15:10:01;96684.78;;;15.55;50.48
48390;BME280;34643;47.964;7.982;2023-03-01T15:15:18;96676.16;;;15.55;50.63
48390;BME280;34643;47.964;7.982;2023-03-01T15:20:19;96689.88;;;15.57;50.48
48390;BME280;34643;47.964;7.982;2023-03-01T15:25:26;96682.06;;;15.57;50.71
48390;BME280;34643;47.964;7.982;2023-03-01T15:30:29;96681.16;;;15.58;50.65
48390;BME280;34643;47.964;7.982;2023-03-01T15:35:38;96669.28;;;15.54;50.83
48390;BME280;34643;47.964;7.982;2023-03-01T15:40:48;96669.06;;;15.57;50.72
48390;BME280;34643;47.964;7.982;2023-03-01T15:45:55;96675.94;;;15.58;50.86
48390;BME280;34643;47.964;7.982;2023-03-01T15:50:56;96678.22;;;15.63;50.66
48390;BME280;34643;47.964;7.982;2023-03-01T15:55:58;96678.41;;;15.59;50.61
48390;BME280;34643;47.964;7.982;2023-03-01T16:00:59;96672.38;;;15.59;50.63
48390;BME280;34643;47.964;7.982;2023-03-01T16:05:59;96678.41;;;15.59;50.73
48390;BME280;34643;47.964;7.982;2023-03-01T16:11:01;96677.59;;;15.59;50.74
48390;BME280;34643;47.964;7.982;2023-03-01T16:16:04;96681.25;;;15.56;50.67
48390;BME280;34643;47.964;7.982;2023-03-01T16:21:05;96678.13;;;15.51;50.56
48390;BME280;34643;47.964;7.982;2023-03-01T16:26:06;96688.53;;;15.51;50.65
48390;BME280;34643;47.964;7.982;2023-03-01T16:31:06;96686.13;;;15.48;50.75
48390;BME280;34643;47.964;7.982;2023-03-01T16:36:08;96684.59;;;15.46;50.67
48390;BME280;34643;47.964;7.982;2023-03-01T16:41:13;96699.34;;;15.45;50.85
48390;BME280;34643;47.964;7.982;2023-03-01T16:46:18;96696.13;;;15.42;50.72
48390;BME280;34643;47.964;7.982;2023-03-01T16:51:19;96702.38;;;15.39;50.64
48390;BME280;34643;47.964;7.982;2023-03-01T16:56:20;96700.91;;;15.35;50.74
48390;BME280;34643;47.964;7.982;2023-03-01T17:01:20;96707.13;;;15.32;50.78
48390;BME280;34643;47.964;7.982;2023-03-01T17:06:24;96712.53;;;15.29;50.89
48390;BME280;34643;47.964;7.982;2023-03-01T17:11:26;96706.00;;;15.24;50.96
48390;BME280;34643;47.964;7.982;2023-03-01T17:16:26;96720.88;;;15.21;50.93
48390;BME280;34643;47.964;7.982;2023-03-01T17:21:27;96715.84;;;15.18;50.79
48390;BME280;34643;47.964;7.982;2023-03-01T17:26:28;96720.44;;;15.15;50.96
48390;BME280;34643;47.964;7.982;2023-03-01T17:31:28;96718.78;;;15.14;50.75
48390;BME280;34643;47.964;7.982;2023-03-01T17:36:28;96722.31;;;15.13;50.83
48390;BME280;34643;47.964;7.982;2023-03-01T17:41:28;96725.09;;;15.10;50.79
48390;BME280;34643;47.964;7.982;2023-03-01T17:46:29;96731.34;;;15.07;50.64
48390;BME280;34643;47.964;7.982;2023-03-01T17:51:29;96738.41;;;15.05;50.81
48390;BME280;34643;47.964;7.982;2023-03-01T17:56:29;96751.31;;;15.07;50.87
48390;BME280;34643;47.964;7.982;2023-03-01T18:01:31;96753.94;;;15.19;50.42
48390;BME280;34643;47.964;7.982;2023-03-01T18:06:33;96760.41;;;15.27;50.49
48390;BME280;34643;47.964;7.982;2023-03-01T18:11:34;96753.13;;;15.32;50.60
48390;BME280;34643;47.964;7.982;2023-03-01T18:16:35;96751.78;;;15.39;50.75
48390;BME280;34643;47.964;7.982;2023-03-01T18:21:35;96746.38;;;15.42;50.66
48390;BME280;34643;47.964;7.982;2023-03-01T18:26:35;96750.25;;;15.49;50.87
48390;BME280;34643;47.964;7.982;2023-03-01T18:31:36;96749.72;;;15.44;50.91
48390;BME280;34643;47.964;7.982;2023-03-01T18:36:37;96741.53;;;15.76;51.91
48390;BME280;34643;47.964;7.982;2023-03-01T18:41:37;96746.53;;;15.92;52.56
48390;BME280;34643;47.964;7.982;2023-03-01T18:46:37;96751.72;;;15.79;53.85
48390;BME280;34643;47.964;7.982;2023-03-01T18:51:38;96747.13;;;15.83;54.18
48390;BME280;34643;47.964;7.982;2023-03-01T18:56:40;96741.91;;;15.83;54.75
48390;BME280;34643;47.964;7.982;2023-03-01T19:01:40;96748.59;;;15.87;54.67
48390;BME280;34643;47.964;7.982;2023-03-01T19:06:40;96751.28;;;15.98;54.30
48390;BME280;34643;47.964;7.982;2023-03-01T19:11:41;96755.69;;;15.98;54.42
48390;BME280;34643;47.964;7.982;2023-03-01T19:16:41;96750.25;;;15.88;54.52
48390;BME280;34643;47.964;7.982;2023-03-01T19:21:41;96740.91;;;15.85;54.42
48390;BME280;34643;47.964;7.982;2023-03-01T19:26:41;96733.00;;;15.87;54.35
48390;BME280;34643;47.964;7.982;2023-03-01T19:31:42;96735.06;;;15.82;54.73
48390;BME280;34643;47.964;7.982;2023-03-01T19:36:42;96730.38;;;15.87;54.49
48390;BME280;34643;47.964;7.982;2023-03-01T19:41:43;96731.22;;;15.87;54.65
48390;BME280;34643;47.964;7.982;2023-03-01T19:46:43;96724.31;;;15.86;54.56
48390;BME280;34643;47.964;7.982;2023-03-01T19:51:44;96720.59;;;15.90;54.75
48390;BME280;34643;47.964;7.982;2023-03-01T19:56:44;96724.13;;;15.89;54.83
48390;BME280;34643;47.964;7.982;2023-03-01T20:01:45;96720.25;;;15.95;54.82
48390;BME280;34643;47.964;7.982;2023-03-01T20:06:46;96714.13;;;15.96;54.77
48390;BME280;34643;47.964;7.982;2023-03-01T20:11:47;96710.78;;;15.94;55.07
48390;BME280;34643;47.964;7.982;2023-03-01T20:16:47;96713.06;;;15.99;55.32
48390;BME280;34643;47.964;7.982;2023-03-01T20:21:48;96709.63;;;15.98;55.23
48390;BME280;34643;47.964;7.982;2023-03-01T20:26:48;96706.31;;;15.96;55.24
48390;BME280;34643;47.964;7.982;2023-03-01T20:31:48;96706.94;;;16.00;55.22
48390;BME280;34643;47.964;7.982;2023-03-01T20:36:49;96708.47;;;16.02;55.11
48390;BME280;34643;47.964;7.982;2023-03-01T20:41:49;96697.97;;;16.04;55.18
48390;BME280;34643;47.964;7.982;2023-03-01T20:46:49;96696.06;;;16.06;55.21
48390;BME280;34643;47.964;7.982;2023-03-01T20:51:50;96677.53;;;16.10;55.44
48390;BME280;34643;47.964;7.982;2023-03-01T20:56:50;96676.09;;;16.06;55.58
48390;BME280;34643;47.964;7.982;2023-03-01T21:01:50;96671.50;;;16.10;55.65
48390;BME280;34643;47.964;7.982;2023-03-01T21:06:50;96665.78;;;16.05;55.34
48390;BME280;34643;47.964;7.982;2023-03-01T21:11:51;96655.69;;;16.00;55.15
48390;BME280;34643;47.964;7.982;2023-03-01T21:16:51;96658.28;;;16.00;54.76
48390;BME280;34643;47.964;7.982;2023-03-01T21:21:51;96657.56;;;15.98;55.02
48390;BME280;34643;47.964;7.982;2023-03-01T21:26:52;96658.63;;;15.95;54.45
48390;BME280;34643;47.964;7.982;2023-03-01T21:31:52;96659.47;;;15.96;54.70
48390;BME280;34643;47.964;7.982;2023-03-01T21:36:52;96648.31;;;15.94;54.08
48390;BME280;34643;47.964;7.982;2023-03-01T21:41:53;96650.22;;;15.92;54.08
48390;BME280;34643;47.964;7.982;2023-03-01T21:46:54;96642.25;;;15.93;54.00
48390;BME280;34643;47.964;7.982;2023-03-01T21:51:54;96630.22;;;15.92;53.82
48390;BME280;34643;47.964;7.982;2023-03-01T21:56:54;96634.44;;;15.93;53.98
48390;BME280;34643;47.964;7.982;2023-03-01T22:01:55;96628.63;;;15.90;53.77
48390;BME280;34643;47.964;7.982;2023-03-01T22:06:55;96622.59;;;15.89;53.90
48390;BME280;34643;47.964;7.982;2023-03-01T22:11:55;96620.00;;;15.89;53.76
48390;BME280;34643;47.964;7.982;2023-03-01T22:17:01;96618.22;;;15.90;53.80
48390;BME280;34643;47.964;7.982;2023-03-01T22:22:01;96611.38;;;15.89;53.79
48390;BME280;34643;47.964;7.982;2023-03-01T22:27:01;96614.09;;;15.87;54.07
48390;BME280;34643;47.964;7.982;2023-03-01T22:32:02;96602.84;;;15.87;54.16
48390;BME280;34643;47.964;7.982;2023-03-01T22:37:03;96595.16;;;15.85;53.88
48390;BME280;34643;47.964;7.982;2023-03-01T22:42:04;96589.31;;;15.82;54.13
48390;BME280;34643;47.964;7.982;2023-03-01T22:47:05;96595.56;;;15.79;54.40
48390;BME280;34643;47.964;7.982;2023-03-01T22:52:05;96586.94;;;15.78;54.15
48390;BME280;34643;47.964;7.982;2023-03-01T22:57:06;96593.09;;;15.77;54.37
48390;BME280;34643;47.964;7.982;2023-03-01T23:02:08;96588.81;;;15.76;54.44
48390;BME280;34643;47.964;7.982;2023-03-01T23:07:08;96593.72;;;15.81;53.99
48390;BME280;34643;47.964;7.982;2023-03-01T23:12:08;96581.72;;;15.78;53.93
48390;BME280;34643;47.964;7.982;2023-03-01T23:17:09;96578.31;;;15.78;54.02
48390;BME280;34643;47.964;7.982;2023-03-01T23:22:11;96568.81;;;15.77;54.01
48390;BME280;34643;47.964;7.982;2023-03-01T23:27:12;96563.50;;;15.78;53.91
48390;BME280;34643;47.964;7.982;2023-03-01T23:32:14;96562.69;;;15.78;53.99
48390;BME280;34643;47.964;7.982;2023-03-01T23:37:14;96546.25;;;15.77;53.79
48390;BME280;34643;47.964;7.982;2023-03-01T23:42:15;96552.38;;;15.76;53.64
48390;BME280;34643;47.964;7.982;2023-03-01T23:47:15;96547.91;;;15.78;53.69
48390;BME280;34643;47.964;7.982;2023-03-01T23:52:15;96542.69;;;15.78;53.71
48390;BME280;34643;47.964;7.982;2023-03-01T23:57:16;96535.94;;;15.76;53.79
